Time;durP1;ratioP1;P1;durP2;ratioP2;P2;SDS_P1;SDS_P2;PMS_P1;PMS_P2;Temp;Humidity;BMP_temperature;BMP_pressure;BME280_temperature;BME280_humidity;BME280_pressure;Samples;Min_cycle;Max_cycle;Signal;HPM_P1;HPM_P2
2022/05/02 00:01:36;;;;;;;21.48;12.18;;;;;;;;;;4288090;81;28520;-72
2022/05/02 00:07:37;;;;;;;18.77;12.13;;;;;;;;;;4283276;81;28535;-73
2022/05/02 00:13:38;;;;;;;19.95;11.03;;;;;;;;;;4281811;81;28552;-73
2022/05/02 00:19:39;;;;;;;19.55;12.15;;;;;;;;;;4285698;81;28521;-72
2022/05/02 00:25:39;;;;;;;18.70;12.60;;;;;;;;;;4283091;81;28511;-74
2022/05/02 00:31:40;;;;;;;21.35;12.80;;;;;;;;;;4289239;81;28579;-72
2022/05/02 00:37:42;;;;;;;21.42;13.08;;;;;;;;;;4285404;81;28541;-73
2022/05/02 00:43:43;;;;;;;20.40;12.65;;;;;;;;;;4289788;81;28519;-73
2022/05/02 00:49:44;;;;;;;20.88;12.13;;;;;;;;;;4291479;81;28500;-73
2022/05/02 00:55:45;;;;;;;20.10;11.83;;;;;;;;;;4286880;81;28515;-74
2022/05/02 01:01:46;;;;;;;22.42;13.18;;;;;;;;;;4290830;81;28539;-73
2022/05/02 01:07:46;;;;;;;21.77;13.35;;;;;;;;;;4292428;81;28566;-73
2022/05/02 01:13:48;;;;;;;23.00;13.22;;;;;;;;;;4293584;81;28515;-74
2022/05/02 01:19:50;;;;;;;27.10;14.38;;;;;;;;;;4289862;81;28555;-74
2022/05/02 01:25:51;;;;;;;21.15;13.60;;;;;;;;;;4282120;81;28514;-74
2022/05/02 01:31:53;;;;;;;18.90;12.18;;;;;;;;;;4289204;81;28563;-74
2022/05/02 01:37:54;;;;;;;20.50;12.78;;;;;;;;;;4291796;81;28536;-73
2022/05/02 01:43:55;;;;;;;18.17;11.08;;;;;;;;;;4309460;81;28554;-74
2022/05/02 01:49:55;;;;;;;20.20;12.68;;;;;;;;;;4297514;81;28494;-72
2022/05/02 01:55:56;;;;;;;22.07;14.40;;;;;;;;;;4305399;81;28561;-73
2022/05/02 02:01:57;;;;;;;21.23;13.18;;;;;;;;;;4300393;81;28565;-74
2022/05/02 02:07:58;;;;;;;22.75;14.47;;;;;;;;;;4300534;81;28469;-74
2022/05/02 02:13:59;;;;;;;20.68;13.43;;;;;;;;;;4298689;81;28549;-73
2022/05/02 02:20:00;;;;;;;17.95;12.18;;;;;;;;;;4300729;81;28512;-73
2022/05/02 02:26:01;;;;;;;20.40;13.03;;;;;;;;;;4300648;81;28538;-74
2022/05/02 02:32:02;;;;;;;23.55;14.40;;;;;;;;;;4290839;81;28579;-74
2022/05/02 02:38:03;;;;;;;24.02;15.20;;;;;;;;;;4298325;81;28544;-73
2022/05/02 02:44:04;;;;;;;25.00;15.55;;;;;;;;;;4318327;81;28504;-74
2022/05/02 02:50:05;;;;;;;23.50;13.20;;;;;;;;;;4290006;81;28469;-74
2022/05/02 02:56:06;;;;;;;23.10;13.08;;;;;;;;;;4298227;81;28563;-73
2022/05/02 03:02:07;;;;;;;18.95;11.38;;;;;;;;;;4300921;81;28510;-72
2022/05/02 03:08:09;;;;;;;22.95;13.03;;;;;;;;;;4294905;81;28535;-74
2022/05/02 03:14:10;;;;;;;22.45;12.60;;;;;;;;;;4301344;81;28529;-73
2022/05/02 03:20:11;;;;;;;18.82;12.70;;;;;;;;;;4298118;81;28588;-74
2022/05/02 03:26:12;;;;;;;20.43;12.80;;;;;;;;;;4300768;81;28507;-74
2022/05/02 03:32:13;;;;;;;21.60;12.70;;;;;;;;;;4295146;81;28570;-73
2022/05/02 03:38:13;;;;;;;23.55;13.32;;;;;;;;;;4287627;81;28613;-73
2022/05/02 03:44:14;;;;;;;20.20;12.45;;;;;;;;;;4297758;81;28535;-74
2022/05/02 03:50:15;;;;;;;19.35;12.10;;;;;;;;;;4283543;81;28563;-73
2022/05/02 03:56:16;;;;;;;20.95;13.22;;;;;;;;;;4301026;81;28949;-75
2022/05/02 04:02:17;;;;;;;23.10;13.22;;;;;;;;;;4297588;81;28519;-73
2022/05/02 04:08:18;;;;;;;20.97;13.03;;;;;;;;;;4299793;81;28498;-73
2022/05/02 04:14:19;;;;;;;19.98;12.93;;;;;;;;;;4299611;81;28492;-74
2022/05/02 04:20:20;;;;;;;19.48;12.05;;;;;;;;;;4299205;81;28573;-73
2022/05/02 04:26:22;;;;;;;17.92;11.55;;;;;;;;;;4291401;81;28552;-73
2022/05/02 04:32:23;;;;;;;19.07;11.70;;;;;;;;;;4296296;81;28558;-73
2022/05/02 04:38:26;;;;;;;21.90;13.45;;;;;;;;;;4284950;81;28548;-73
2022/05/02 04:44:27;;;;;;;21.85;12.82;;;;;;;;;;4295613;81;28515;-72
2022/05/02 04:50:28;;;;;;;22.07;13.25;;;;;;;;;;4295340;81;28538;-73
2022/05/02 04:56:29;;;;;;;22.55;13.13;;;;;;;;;;4294184;81;28511;-73
2022/05/02 05:02:30;;;;;;;25.05;15.10;;;;;;;;;;4294017;81;28940;-73
2022/05/02 05:08:31;;;;;;;25.40;14.28;;;;;;;;;;4295488;81;28526;-72
2022/05/02 05:20:58;;;;;;;23.52;13.90;;;;;;;;;;4294016;81;28518;-73
2022/05/02 05:27:10;;;;;;;25.20;16.23;;;;;;;;;;4277114;82;28469;-73
2022/05/02 05:33:13;;;;;;;24.50;15.80;;;;;;;;;;4296576;81;28508;-74
2022/05/02 05:39:25;;;;;;;24.37;16.35;;;;;;;;;;4300058;81;28522;-72
2022/05/02 05:45:46;;;;;;;24.72;16.82;;;;;;;;;;4297364;82;28576;-73
2022/05/02 05:52:01;;;;;;;25.30;16.80;;;;;;;;;;4294130;81;28524;-73
2022/05/02 05:58:04;;;;;;;24.12;16.07;;;;;;;;;;4303057;81;28536;-74
2022/05/02 06:04:07;;;;;;;28.38;16.73;;;;;;;;;;4301161;81;28503;-73
2022/05/02 06:10:09;;;;;;;25.27;16.20;;;;;;;;;;4301180;81;28506;-73
2022/05/02 06:22:31;;;;;;;24.67;14.78;;;;;;;;;;4296708;81;28486;-72
2022/05/02 06:28:42;;;;;;;26.60;16.40;;;;;;;;;;4301026;81;28568;-72
2022/05/02 06:34:44;;;;;;;24.32;15.23;;;;;;;;;;4297403;81;28796;-73
2022/05/02 06:40:47;;;;;;;26.55;15.58;;;;;;;;;;4295776;81;28580;-72
2022/05/02 06:46:50;;;;;;;22.93;14.80;;;;;;;;;;4288947;81;28512;-73
2022/05/02 06:52:55;;;;;;;28.38;14.58;;;;;;;;;;4292554;81;28539;-75
2022/05/02 06:59:01;;;;;;;24.57;14.47;;;;;;;;;;4289324;82;28563;-77
2022/05/02 07:05:14;;;;;;;24.63;14.47;;;;;;;;;;4293997;81;43765;-76
2022/05/02 07:11:17;;;;;;;20.97;14.23;;;;;;;;;;4275445;81;28566;-75
2022/05/02 07:17:19;;;;;;;24.55;14.63;;;;;;;;;;4294895;81;28532;-76
2022/05/02 07:23:37;;;;;;;24.37;15.25;;;;;;;;;;4289404;81;28519;-77
2022/05/02 07:29:39;;;;;;;25.48;15.53;;;;;;;;;;4292041;81;28551;-76
2022/05/02 07:35:40;;;;;;;25.95;16.02;;;;;;;;;;4296545;81;28535;-78
2022/05/02 07:41:43;;;;;;;26.07;16.55;;;;;;;;;;4303595;81;28507;-75
2022/05/02 07:47:45;;;;;;;31.37;17.73;;;;;;;;;;4303560;81;28472;-75
2022/05/02 07:53:48;;;;;;;24.85;16.42;;;;;;;;;;4291478;81;28519;-75
2022/05/02 07:59:50;;;;;;;29.87;17.48;;;;;;;;;;4301104;81;28484;-78
2022/05/02 08:05:53;;;;;;;27.70;17.12;;;;;;;;;;4303633;81;28494;-80
2022/05/02 08:12:09;;;;;;;29.80;16.12;;;;;;;;;;4303907;81;28565;-79
2022/05/02 08:18:28;;;;;;;28.15;16.42;;;;;;;;;;4284567;81;28672;-76
2022/05/02 08:30:59;;;;;;;27.62;16.25;;;;;;;;;;4293940;81;28484;-75
2022/05/02 08:37:11;;;;;;;25.35;15.78;;;;;;;;;;4294704;81;28508;-77
2022/05/02 08:43:33;;;;;;;21.87;14.60;;;;;;;;;;4269087;81;28550;-78
2022/05/02 08:49:38;;;;;;;26.07;16.23;;;;;;;;;;4289204;81;28504;-78
2022/05/02 08:55:47;;;;;;;26.45;15.70;;;;;;;;;;4294077;81;28553;-79
2022/05/02 09:01:59;;;;;;;19.05;13.05;;;;;;;;;;4288781;81;28531;-79
2022/05/02 09:08:19;;;;;;;19.52;11.50;;;;;;;;;;4289911;81;28591;-78
2022/05/02 09:14:38;;;;;;;18.35;13.30;;;;;;;;;;4290565;81;28591;-78
2022/05/02 09:20:58;;;;;;;22.27;12.37;;;;;;;;;;4291986;81;28522;-78
2022/05/02 09:27:16;;;;;;;17.48;11.18;;;;;;;;;;4291913;81;28468;-79
2022/05/02 09:33:30;;;;;;;12.90;9.08;;;;;;;;;;4288209;81;28500;-80
2022/05/02 09:39:42;;;;;;;9.63;7.30;;;;;;;;;;4297849;81;28589;-79
2022/05/02 09:52:15;;;;;;;11.12;7.62;;;;;;;;;;4301421;81;28465;-78
2022/05/02 09:58:35;;;;;;;9.15;6.83;;;;;;;;;;4301395;81;28540;-78
2022/05/02 10:04:38;;;;;;;10.55;7.30;;;;;;;;;;4292975;81;28531;-78
2022/05/02 10:10:42;;;;;;;9.28;6.03;;;;;;;;;;4293205;81;28491;-78
2022/05/02 10:16:54;;;;;;;9.98;6.12;;;;;;;;;;4298998;82;28586;-77
2022/05/02 10:23:00;;;;;;;7.92;6.28;;;;;;;;;;4295972;81;28527;-77
2022/05/02 10:29:19;;;;;;;8.48;5.92;;;;;;;;;;4299712;83;28512;-77
2022/05/02 10:35:21;;;;;;;6.42;4.95;;;;;;;;;;4299493;81;28500;-78
2022/05/02 10:41:30;;;;;;;8.70;5.78;;;;;;;;;;4290927;81;28556;-78
2022/05/02 10:47:49;;;;;;;7.53;4.90;;;;;;;;;;4291410;81;28508;-79
2022/05/02 10:53:59;;;;;;;7.15;5.25;;;;;;;;;;4292458;82;28576;-78
2022/05/02 11:00:01;;;;;;;8.48;5.20;;;;;;;;;;4292017;81;28546;-77
2022/05/02 11:06:07;;;;;;;6.83;5.00;;;;;;;;;;4288492;82;28570;-77
2022/05/02 11:12:09;;;;;;;7.35;4.67;;;;;;;;;;4291976;81;28544;-78
2022/05/02 11:24:50;;;;;;;10.55;5.40;;;;;;;;;;4294171;81;28464;-78
2022/05/02 11:30:54;;;;;;;7.28;5.20;;;;;;;;;;4293015;81;28506;-79
2022/05/02 11:36:58;;;;;;;8.20;5.65;;;;;;;;;;4253070;82;28536;-78
2022/05/02 11:42:58;;;;;;;6.90;5.28;;;;;;;;;;4291522;81;28520;-78
2022/05/02 11:49:19;;;;;;;7.65;6.00;;;;;;;;;;4295447;81;28449;-78
2022/05/02 12:01:25;;;;;;;7.83;6.30;;;;;;;;;;4575920;74;86718;-76
2022/05/02 12:07:27;;;;;;;9.75;6.30;;;;;;;;;;4492447;77;28502;-75
2022/05/02 12:13:31;;;;;;;8.33;5.53;;;;;;;;;;4503562;77;28477;-76
2022/05/02 12:19:36;;;;;;;9.88;5.85;;;;;;;;;;4517708;77;28586;-75
2022/05/02 12:25:48;;;;;;;8.63;5.95;;;;;;;;;;4516914;77;28573;-76
2022/05/02 12:31:56;;;;;;;7.78;5.33;;;;;;;;;;4501855;77;28559;-74
2022/05/02 12:37:57;;;;;;;9.28;6.10;;;;;;;;;;4523940;77;29565;-75
2022/05/02 12:44:08;;;;;;;8.75;5.37;;;;;;;;;;4520824;77;28588;-75
2022/05/02 12:50:17;;;;;;;7.72;5.28;;;;;;;;;;4506555;77;28593;-75
2022/05/02 12:56:18;;;;;;;8.60;5.65;;;;;;;;;;4510615;77;28574;-75
2022/05/02 13:02:33;;;;;;;6.60;5.78;;;;;;;;;;4511586;77;28532;-74
2022/05/02 13:08:35;;;;;;;6.85;5.30;;;;;;;;;;4493797;77;28534;-74
2022/05/02 13:14:36;;;;;;;7.15;5.40;;;;;;;;;;4517166;77;28547;-75
2022/05/02 13:20:37;;;;;;;5.70;4.83;;;;;;;;;;4524263;77;28530;-75
2022/05/02 13:26:56;;;;;;;7.92;5.53;;;;;;;;;;4523886;77;28533;-75
2022/05/02 13:32:59;;;;;;;6.90;5.00;;;;;;;;;;4525210;77;28538;-75
2022/05/02 13:39:05;;;;;;;8.25;6.10;;;;;;;;;;4532851;77;28463;-76
2022/05/02 13:45:14;;;;;;;6.67;4.70;;;;;;;;;;4523959;77;28545;-76
2022/05/02 13:51:27;;;;;;;5.62;4.42;;;;;;;;;;4534162;77;28483;-73
2022/05/02 13:57:38;;;;;;;6.55;5.03;;;;;;;;;;4524004;77;28595;-79
2022/05/02 14:03:49;;;;;;;8.00;5.47;;;;;;;;;;4525453;77;28502;-76
2022/05/02 14:09:54;;;;;;;6.17;4.62;;;;;;;;;;4531690;77;28527;-75
2022/05/02 14:15:57;;;;;;;6.62;4.47;;;;;;;;;;4531748;77;28510;-77
2022/05/02 14:22:00;;;;;;;7.40;4.65;;;;;;;;;;4533716;77;28527;-76
2022/05/02 14:28:02;;;;;;;6.90;4.80;;;;;;;;;;4544455;77;29013;-77
2022/05/02 14:34:05;;;;;;;5.95;4.55;;;;;;;;;;4529568;77;28466;-76
2022/05/02 14:40:07;;;;;;;4.37;3.83;;;;;;;;;;4529962;77;28530;-77
2022/05/02 14:46:10;;;;;;;5.20;4.20;;;;;;;;;;4535659;76;28518;-79
2022/05/02 14:52:18;;;;;;;5.72;4.70;;;;;;;;;;4532514;77;28538;-77
2022/05/02 14:58:18;;;;;;;6.67;4.10;;;;;;;;;;4525184;77;28495;-77
2022/05/02 15:04:20;;;;;;;6.63;4.07;;;;;;;;;;4528683;77;28456;-77
2022/05/02 15:10:33;;;;;;;5.65;4.75;;;;;;;;;;4454710;78;28478;-77
2022/05/02 15:16:44;;;;;;;8.15;4.35;;;;;;;;;;4433082;79;28546;-76
2022/05/02 15:22:50;;;;;;;5.35;3.65;;;;;;;;;;4446005;78;28530;-76
2022/05/02 15:42:02;;;;;;;4.53;3.58;;;;;;;;;;4455371;78;28511;-76
2022/05/02 15:48:06;;;;;;;5.67;3.55;;;;;;;;;;4466290;78;28535;-77
2022/05/02 15:54:12;;;;;;;7.05;3.60;;;;;;;;;;4441948;78;28512;-77
2022/05/02 16:00:24;;;;;;;4.60;3.60;;;;;;;;;;4486184;77;28508;-76
2022/05/02 16:06:25;;;;;;;5.12;3.52;;;;;;;;;;4501690;77;28479;-77
2022/05/02 16:12:27;;;;;;;5.33;3.52;;;;;;;;;;4491599;77;28539;-77
2022/05/02 16:18:35;;;;;;;5.20;4.05;;;;;;;;;;4499401;77;28551;-77
2022/05/02 16:24:46;;;;;;;6.12;3.83;;;;;;;;;;4492361;77;28480;-76
2022/05/02 16:30:48;;;;;;;6.95;3.98;;;;;;;;;;4494613;77;28518;-78
2022/05/02 16:36:51;;;;;;;4.10;3.55;;;;;;;;;;4479446;77;28514;-79
2022/05/02 16:42:53;;;;;;;5.80;4.42;;;;;;;;;;4484007;77;28549;-77
2022/05/02 16:48:57;;;;;;;7.92;5.72;;;;;;;;;;4490911;77;28506;-77
2022/05/02 16:54:57;;;;;;;7.72;3.95;;;;;;;;;;4484642;77;28523;-75
2022/05/02 17:01:01;;;;;;;5.37;4.00;;;;;;;;;;4484300;78;28506;-76
2022/05/02 17:07:02;;;;;;;7.53;3.95;;;;;;;;;;4484215;77;28480;-76
2022/05/02 17:13:03;;;;;;;6.95;4.00;;;;;;;;;;4478760;77;28535;-75
2022/05/02 17:19:10;;;;;;;8.08;5.00;;;;;;;;;;4500230;77;28546;-76
2022/05/02 17:25:11;;;;;;;12.25;6.72;;;;;;;;;;4458474;77;28582;-73
2022/05/02 17:31:16;;;;;;;10.03;6.50;;;;;;;;;;4491268;77;28537;-75
2022/05/02 17:37:18;;;;;;;13.72;7.62;;;;;;;;;;4478752;79;28550;-76
2022/05/02 17:43:21;;;;;;;11.75;6.35;;;;;;;;;;4462465;77;28562;-77
2022/05/02 17:49:22;;;;;;;8.50;4.80;;;;;;;;;;4486010;77;28427;-77
2022/05/02 17:55:23;;;;;;;11.22;4.83;;;;;;;;;;4494696;77;28520;-76
2022/05/02 18:01:25;;;;;;;9.23;5.20;;;;;;;;;;4421895;77;28518;-73
2022/05/02 18:07:27;;;;;;;9.63;4.53;;;;;;;;;;4405235;79;28632;-74
2022/05/02 18:13:28;;;;;;;8.95;4.20;;;;;;;;;;4455302;77;28498;-74
2022/05/02 18:19:29;;;;;;;9.58;4.33;;;;;;;;;;4455381;77;28471;-74
2022/05/02 18:25:32;;;;;;;8.30;3.95;;;;;;;;;;4397002;79;28564;-74
2022/05/02 18:31:34;;;;;;;11.20;6.50;;;;;;;;;;4479701;79;28538;-74
2022/05/02 18:37:35;;;;;;;8.20;5.25;;;;;;;;;;4489440;78;29672;-74
2022/05/02 18:43:40;;;;;;;10.15;5.00;;;;;;;;;;4461031;77;28542;-78
2022/05/02 18:56:04;;;;;;;9.20;4.95;;;;;;;;;;4398647;77;28548;-77
2022/05/02 19:02:07;;;;;;;9.38;6.22;;;;;;;;;;4457746;77;28533;-82
2022/05/02 19:08:15;;;;;;;15.72;7.60;;;;;;;;;;4472073;77;28524;-82
2022/05/02 19:14:23;;;;;;;10.30;5.90;;;;;;;;;;4453195;77;28521;-76
2022/05/02 19:20:25;;;;;;;11.33;6.37;;;;;;;;;;4488069;77;28589;-78
2022/05/02 19:26:26;;;;;;;23.70;13.35;;;;;;;;;;4453194;77;28581;-75
2022/05/02 19:32:28;;;;;;;21.17;12.37;;;;;;;;;;4480492;77;28540;-76
2022/05/02 19:44:59;;;;;;;18.87;11.40;;;;;;;;;;4491643;77;28510;-77
2022/05/02 19:51:00;;;;;;;16.32;9.65;;;;;;;;;;4493573;77;28583;-76
2022/05/02 19:57:01;;;;;;;14.33;8.10;;;;;;;;;;4490799;77;28550;-78
2022/05/02 20:03:02;;;;;;;13.75;8.20;;;;;;;;;;4482472;77;28567;-76
2022/05/02 20:09:06;;;;;;;16.70;9.80;;;;;;;;;;4489272;77;28565;-75
2022/05/02 20:15:06;;;;;;;14.85;8.43;;;;;;;;;;4486640;77;28577;-76
2022/05/02 20:21:08;;;;;;;15.50;8.55;;;;;;;;;;4491922;77;28573;-76
2022/05/02 20:27:08;;;;;;;13.60;8.15;;;;;;;;;;4496283;77;28499;-77
2022/05/02 20:39:31;;;;;;;14.18;8.18;;;;;;;;;;4486025;77;28530;-76
2022/05/02 20:45:33;;;;;;;17.15;8.68;;;;;;;;;;4470611;77;28463;-77
2022/05/02 20:51:38;;;;;;;19.40;11.35;;;;;;;;;;4479616;77;28511;-76
2022/05/02 20:57:39;;;;;;;16.23;9.75;;;;;;;;;;4480639;77;28570;-76
2022/05/02 21:03:40;;;;;;;18.73;10.65;;;;;;;;;;4491226;77;28547;-77
2022/05/02 21:09:43;;;;;;;16.95;10.03;;;;;;;;;;4378718;79;28589;-77
2022/05/02 21:15:46;;;;;;;17.55;9.78;;;;;;;;;;4385924;79;28508;-76
2022/05/02 21:21:55;;;;;;;15.68;9.63;;;;;;;;;;4452650;77;28553;-76
2022/05/02 21:28:04;;;;;;;17.15;10.88;;;;;;;;;;4440302;77;28577;-75
2022/05/02 21:34:09;;;;;;;20.50;10.63;;;;;;;;;;4471150;77;28566;-77
2022/05/02 21:40:12;;;;;;;19.67;12.15;;;;;;;;;;4481147;77;28487;-76
2022/05/02 21:46:15;;;;;;;19.80;13.08;;;;;;;;;;4481470;77;28588;-76
2022/05/02 21:52:18;;;;;;;22.48;13.03;;;;;;;;;;4366454;79;28557;-76
2022/05/02 21:58:19;;;;;;;21.65;12.90;;;;;;;;;;4298853;81;28518;-76
2022/05/02 22:04:20;;;;;;;21.85;12.68;;;;;;;;;;4226834;82;28548;-75
2022/05/02 22:10:20;;;;;;;21.68;13.40;;;;;;;;;;4218812;82;28532;-77
2022/05/02 22:16:21;;;;;;;22.82;13.98;;;;;;;;;;4225598;82;28594;-76
2022/05/02 22:22:26;;;;;;;23.07;14.13;;;;;;;;;;4224624;82;28524;-76
2022/05/02 22:28:27;;;;;;;21.40;13.78;;;;;;;;;;4226118;82;28535;-78
2022/05/02 22:34:28;;;;;;;24.27;14.85;;;;;;;;;;4220392;82;28508;-76
2022/05/02 22:40:29;;;;;;;24.63;15.15;;;;;;;;;;4215314;82;28582;-76
2022/05/02 22:46:30;;;;;;;19.45;12.58;;;;;;;;;;4216505;82;28535;-77
2022/05/02 22:52:31;;;;;;;22.13;13.95;;;;;;;;;;4238401;82;28485;-76
2022/05/02 22:58:33;;;;;;;24.18;14.28;;;;;;;;;;4256997;82;28587;-77
2022/05/02 23:04:53;;;;;;;23.32;13.55;;;;;;;;;;4297084;81;28536;-76
2022/05/02 23:10:55;;;;;;;24.27;15.40;;;;;;;;;;4389572;79;28551;-76
2022/05/02 23:16:59;;;;;;;23.22;14.60;;;;;;;;;;4291285;81;28530;-77
2022/05/02 23:23:00;;;;;;;25.45;15.28;;;;;;;;;;4279969;81;28571;-77
2022/05/02 23:29:01;;;;;;;25.15;14.38;;;;;;;;;;4309003;81;28530;-76
2022/05/02 23:35:07;;;;;;;21.57;13.60;;;;;;;;;;4306477;81;28572;-76
2022/05/02 23:41:11;;;;;;;21.68;13.55;;;;;;;;;;4305792;81;28494;-76
2022/05/02 23:47:14;;;;;;;25.65;15.43;;;;;;;;;;4309233;81;28538;-77
2022/05/02 23:53:26;;;;;;;26.50;15.18;;;;;;;;;;4307181;81;28548;-76
2022/05/02 23:59:48;;;;;;;25.25;15.00;;;;;;;;;;4298809;81;28548;-77
